sensor_id;sensor_type;location;lat;lon;timestamp;pressure;altitude;pressure_sealevel;temperature;humidity
84049;BME280;74136;51.684;7.862;2024-01-15T00:01:48;99487.63;;;-0.23;92.90
84049;BME280;74136;51.684;7.862;2024-01-15T00:04:14;99483.66;;;-0.21;92.64
84049;BME280;74136;51.684;7.862;2024-01-15T00:06:41;99479.09;;;-0.20;92.50
84049;BME280;74136;51.684;7.862;2024-01-15T00:09:08;99480.56;;;-0.18;92.97
84049;BME280;74136;51.684;7.862;2024-01-15T00:11:34;99463.91;;;-0.21;92.65
84049;BME280;74136;51.684;7.862;2024-01-15T00:14:00;99457.09;;;-0.17;92.80
84049;BME280;74136;51.684;7.862;2024-01-15T00:16:26;99463.31;;;-0.17;92.89
84049;BME280;74136;51.684;7.862;2024-01-15T00:18:53;99470.41;;;-0.16;92.57
84049;BME280;74136;51.684;7.862;2024-01-15T00:21:19;99472.09;;;-0.15;92.50
84049;BME280;74136;51.684;7.862;2024-01-15T00:23:45;99463.78;;;-0.13;92.94
84049;BME280;74136;51.684;7.862;2024-01-15T00:26:13;99463.97;;;-0.15;92.58
84049;BME280;74136;51.684;7.862;2024-01-15T00:28:39;99467.31;;;-0.13;92.38
84049;BME280;74136;51.684;7.862;2024-01-15T00:31:05;99470.44;;;-0.09;92.71
84049;BME280;74136;51.684;7.862;2024-01-15T00:33:31;99475.66;;;-0.08;92.63
84049;BME280;74136;51.684;7.862;2024-01-15T00:35:58;99462.75;;;-0.12;92.57
84049;BME280;74136;51.684;7.862;2024-01-15T00:38:25;99464.84;;;-0.08;92.17
84049;BME280;74136;51.684;7.862;2024-01-15T00:40:51;99469.03;;;-0.05;92.05
84049;BME280;74136;51.684;7.862;2024-01-15T00:43:18;99468.84;;;-0.04;92.31
84049;BME280;74136;51.684;7.862;2024-01-15T00:45:45;99467.81;;;-0.03;92.12
84049;BME280;74136;51.684;7.862;2024-01-15T00:48:11;99470.34;;;-0.01;92.12
84049;BME280;74136;51.684;7.862;2024-01-15T00:50:37;99463.06;;;-0.01;91.70
84049;BME280;74136;51.684;7.862;2024-01-15T00:53:04;99467.03;;;0.04;91.16
84049;BME280;74136;51.684;7.862;2024-01-15T00:55:30;99459.38;;;0.07;90.83
84049;BME280;74136;51.684;7.862;2024-01-15T00:57:56;99470.38;;;0.06;91.16
84049;BME280;74136;51.684;7.862;2024-01-15T01:00:22;99460.13;;;0.01;91.21
84049;BME280;74136;51.684;7.862;2024-01-15T01:02:48;99461.41;;;0.05;91.10
84049;BME280;74136;51.684;7.862;2024-01-15T01:05:15;99455.38;;;0.03;91.52
84049;BME280;74136;51.684;7.862;2024-01-15T01:07:41;99462.72;;;0.09;90.81
84049;BME280;74136;51.684;7.862;2024-01-15T01:10:07;99455.22;;;0.11;90.35
84049;BME280;74136;51.684;7.862;2024-01-15T01:12:34;99451.69;;;0.11;90.16
84049;BME280;74136;51.684;7.862;2024-01-15T01:15:00;99451.88;;;0.09;90.23
84049;BME280;74136;51.684;7.862;2024-01-15T01:17:26;99451.69;;;0.11;90.74
84049;BME280;74136;51.684;7.862;2024-01-15T01:19:52;99450.22;;;0.08;90.97
84049;BME280;74136;51.684;7.862;2024-01-15T01:22:18;99450.03;;;0.10;90.12
84049;BME280;74136;51.684;7.862;2024-01-15T01:24:45;99454.41;;;0.11;90.97
84049;BME280;74136;51.684;7.862;2024-01-15T01:27:11;99453.75;;;0.09;91.30
84049;BME280;74136;51.684;7.862;2024-01-15T01:29:37;99451.88;;;0.09;91.37
84049;BME280;74136;51.684;7.862;2024-01-15T01:32:04;99434.38;;;0.05;91.12
84049;BME280;74136;51.684;7.862;2024-01-15T01:34:32;99429.59;;;0.07;91.14
84049;BME280;74136;51.684;7.862;2024-01-15T01:36:59;99429.53;;;0.00;91.14
84049;BME280;74136;51.684;7.862;2024-01-15T01:39:26;99437.91;;;0.06;91.00
84049;BME280;74136;51.684;7.862;2024-01-15T01:41:52;99438.94;;;0.05;91.04
84049;BME280;74136;51.684;7.862;2024-01-15T01:44:18;99438.56;;;0.08;90.99
84049;BME280;74136;51.684;7.862;2024-01-15T01:46:44;99443.59;;;0.11;90.84
84049;BME280;74136;51.684;7.862;2024-01-15T01:49:12;99442.75;;;0.10;91.08
84049;BME280;74136;51.684;7.862;2024-01-15T01:51:38;99436.28;;;0.11;91.08
84049;BME280;74136;51.684;7.862;2024-01-15T01:54:06;99442.75;;;0.10;90.66
84049;BME280;74136;51.684;7.862;2024-01-15T01:56:34;99436.72;;;0.15;90.68
84049;BME280;74136;51.684;7.862;2024-01-15T01:59:01;99443.63;;;0.17;90.23
84049;BME280;74136;51.684;7.862;2024-01-15T02:01:30;99431.31;;;0.15;90.39
84049;BME280;74136;51.684;7.862;2024-01-15T02:03:56;99432.16;;;0.15;89.97
84049;BME280;74136;51.684;7.862;2024-01-15T02:06:23;99442.13;;;0.15;90.13
84049;BME280;74136;51.684;7.862;2024-01-15T02:08:50;99430.47;;;0.14;90.35
84049;BME280;74136;51.684;7.862;2024-01-15T02:11:16;99419.25;;;0.11;89.79
84049;BME280;74136;51.684;7.862;2024-01-15T02:13:44;99417.34;;;0.11;90.34
84049;BME280;74136;51.684;7.862;2024-01-15T02:16:10;99420.50;;;0.15;89.84
84049;BME280;74136;51.684;7.862;2024-01-15T02:18:44;99421.13;;;0.17;89.87
84049;BME280;74136;51.684;7.862;2024-01-15T02:21:10;99427.59;;;0.16;90.06
84049;BME280;74136;51.684;7.862;2024-01-15T02:23:38;99426.34;;;0.18;89.71
84049;BME280;74136;51.684;7.862;2024-01-15T02:26:05;99430.53;;;0.21;89.83
84049;BME280;74136;51.684;7.862;2024-01-15T02:28:32;99439.28;;;0.23;89.40
84049;BME280;74136;51.684;7.862;2024-01-15T02:30:59;99432.22;;;0.22;89.24
84049;BME280;74136;51.684;7.862;2024-01-15T02:33:25;99435.13;;;0.20;89.53
84049;BME280;74136;51.684;7.862;2024-01-15T02:35:51;99429.91;;;0.19;89.47
84049;BME280;74136;51.684;7.862;2024-01-15T02:38:18;99426.75;;;0.15;89.34
84049;BME280;74136;51.684;7.862;2024-01-15T02:40:45;99430.28;;;0.16;89.25
84049;BME280;74136;51.684;7.862;2024-01-15T02:43:11;99435.06;;;0.14;89.82
84049;BME280;74136;51.684;7.862;2024-01-15T02:45:39;99430.88;;;0.11;90.10
84049;BME280;74136;51.684;7.862;2024-01-15T02:48:06;99440.28;;;0.15;89.69
84049;BME280;74136;51.684;7.862;2024-01-15T02:50:32;99435.06;;;0.14;89.27
84049;BME280;74136;51.684;7.862;2024-01-15T02:52:58;99418.00;;;0.13;89.82
84049;BME280;74136;51.684;7.862;2024-01-15T02:55:24;99429.41;;;0.09;89.85
84049;BME280;74136;51.684;7.862;2024-01-15T02:57:50;99428.78;;;0.07;90.07
84049;BME280;74136;51.684;7.862;2024-01-15T03:00:18;99428.97;;;0.05;89.82
84049;BME280;74136;51.684;7.862;2024-01-15T03:02:44;99428.13;;;0.05;89.97
84049;BME280;74136;51.684;7.862;2024-01-15T03:05:11;99421.25;;;0.02;90.21
84049;BME280;74136;51.684;7.862;2024-01-15T03:07:37;99413.78;;;0.04;90.12
84049;BME280;74136;51.684;7.862;2024-01-15T03:10:05;99419.19;;;0.04;89.51
84049;BME280;74136;51.684;7.862;2024-01-15T03:12:33;99419.38;;;0.03;89.80
84049;BME280;74136;51.684;7.862;2024-01-15T03:14:59;99423.34;;;0.00;89.62
84049;BME280;74136;51.684;7.862;2024-01-15T03:17:26;99414.38;;;-0.01;89.34
84049;BME280;74136;51.684;7.862;2024-01-15T03:19:53;99420.63;;;0.00;89.01
84049;BME280;74136;51.684;7.862;2024-01-15T03:22:19;99426.84;;;0.00;89.58
84049;BME280;74136;51.684;7.862;2024-01-15T03:24:46;99423.94;;;0.02;89.49
84049;BME280;74136;51.684;7.862;2024-01-15T03:27:12;99429.81;;;0.06;89.53
84049;BME280;74136;51.684;7.862;2024-01-15T03:29:39;99439.41;;;0.08;89.08
84049;BME280;74136;51.684;7.862;2024-01-15T03:32:07;99437.34;;;0.10;89.00
84049;BME280;74136;51.684;7.862;2024-01-15T03:34:33;99441.91;;;0.10;89.20
84049;BME280;74136;51.684;7.862;2024-01-15T03:36:59;99429.59;;;0.07;89.25
84049;BME280;74136;51.684;7.862;2024-01-15T03:39:26;99426.25;;;0.05;89.33
84049;BME280;74136;51.684;7.862;2024-01-15T03:41:52;99428.63;;;0.15;88.74
84049;BME280;74136;51.684;7.862;2024-01-15T03:44:21;99426.94;;;0.14;88.51
84049;BME280;74136;51.684;7.862;2024-01-15T03:46:47;99429.44;;;0.15;88.53
84049;BME280;74136;51.684;7.862;2024-01-15T03:49:13;99431.13;;;0.16;88.23
84049;BME280;74136;51.684;7.862;2024-01-15T03:51:40;99421.97;;;0.17;88.34
84049;BME280;74136;51.684;7.862;2024-01-15T03:54:06;99406.13;;;0.14;88.27
84049;BME280;74136;51.684;7.862;2024-01-15T03:56:32;99417.56;;;0.10;88.50
84049;BME280;74136;51.684;7.862;2024-01-15T03:58:58;99425.22;;;0.06;88.11
84049;BME280;74136;51.684;7.862;2024-01-15T04:01:25;99402.75;;;0.06;87.92
84049;BME280;74136;51.684;7.862;2024-01-15T04:03:51;99411.25;;;0.03;88.15
84049;BME280;74136;51.684;7.862;2024-01-15T04:06:17;99397.25;;;-0.08;88.01
84049;BME280;74136;51.684;7.862;2024-01-15T04:08:43;99403.13;;;-0.04;87.85
84049;BME280;74136;51.684;7.862;2024-01-15T04:11:09;99391.44;;;-0.11;88.20
84049;BME280;74136;51.684;7.862;2024-01-15T04:13:36;99395.84;;;-0.04;87.92
84049;BME280;74136;51.684;7.862;2024-01-15T04:16:02;99403.56;;;-0.01;87.91
84049;BME280;74136;51.684;7.862;2024-01-15T04:18:29;99401.88;;;-0.02;87.80
84049;BME280;74136;51.684;7.862;2024-01-15T04:20:55;99388.75;;;-0.05;87.58
84049;BME280;74136;51.684;7.862;2024-01-15T04:23:21;99389.78;;;-0.06;88.19
84049;BME280;74136;51.684;7.862;2024-01-15T04:25:48;99396.91;;;0.02;87.96
84049;BME280;74136;51.684;7.862;2024-01-15T04:28:14;99397.78;;;0.09;87.24
84049;BME280;74136;51.684;7.862;2024-01-15T04:30:40;99385.13;;;0.10;87.13
84049;BME280;74136;51.684;7.862;2024-01-15T04:33:06;99384.88;;;0.11;87.33
84049;BME280;74136;51.684;7.862;2024-01-15T04:35:33;99379.69;;;0.10;87.61
84049;BME280;74136;51.684;7.862;2024-01-15T04:38:00;99374.50;;;0.08;87.01
84049;BME280;74136;51.684;7.862;2024-01-15T04:40:26;99382.59;;;0.08;87.64
84049;BME280;74136;51.684;7.862;2024-01-15T04:42:54;99377.59;;;0.12;87.76
84049;BME280;74136;51.684;7.862;2024-01-15T04:45:20;99386.56;;;0.12;87.79
84049;BME280;74136;51.684;7.862;2024-01-15T04:47:49;99387.84;;;0.16;87.06
84049;BME280;74136;51.684;7.862;2024-01-15T04:50:15;99375.41;;;0.22;86.87
84049;BME280;74136;51.684;7.862;2024-01-15T04:52:41;99388.50;;;0.25;86.97
84049;BME280;74136;51.684;7.862;2024-01-15T04:55:07;99372.91;;;0.20;87.65
84049;BME280;74136;51.684;7.862;2024-01-15T04:57:34;99376.84;;;0.24;87.61
84049;BME280;74136;51.684;7.862;2024-01-15T05:00:00;99370.00;;;0.22;87.88
84049;BME280;74136;51.684;7.862;2024-01-15T05:02:26;99365.38;;;0.22;87.63
84049;BME280;74136;51.684;7.862;2024-01-15T05:04:52;99365.19;;;0.24;87.96
84049;BME280;74136;51.684;7.862;2024-01-15T05:07:19;99360.63;;;0.24;87.68
84049;BME280;74136;51.684;7.862;2024-01-15T05:09:45;99355.41;;;0.23;87.47
84049;BME280;74136;51.684;7.862;2024-01-15T05:12:11;99351.28;;;0.27;87.78
84049;BME280;74136;51.684;7.862;2024-01-15T05:14:37;99345.22;;;0.25;87.33
84049;BME280;74136;51.684;7.862;2024-01-15T05:17:04;99339.81;;;0.25;87.69
84049;BME280;74136;51.684;7.862;2024-01-15T05:19:30;99326.47;;;0.17;87.50
84049;BME280;74136;51.684;7.862;2024-01-15T05:21:57;99333.75;;;0.16;87.67
84049;BME280;74136;51.684;7.862;2024-01-15T05:24:23;99348.94;;;0.17;88.07
84049;BME280;74136;51.684;7.862;2024-01-15T05:26:52;99347.28;;;0.16;87.95
84049;BME280;74136;51.684;7.862;2024-01-15T05:29:18;99337.94;;;0.19;87.77
84049;BME280;74136;51.684;7.862;2024-01-15T05:31:44;99338.50;;;0.14;87.72
84049;BME280;74136;51.684;7.862;2024-01-15T05:34:11;99344.16;;;0.19;87.47
84049;BME280;74136;51.684;7.862;2024-01-15T05:36:37;99347.09;;;0.24;87.58
84049;BME280;74136;51.684;7.862;2024-01-15T05:39:04;99350.63;;;0.25;87.76
84049;BME280;74136;51.684;7.862;2024-01-15T05:41:30;99340.66;;;0.25;87.17
84049;BME280;74136;51.684;7.862;2024-01-15T05:43:56;99351.06;;;0.28;86.96
84049;BME280;74136;51.684;7.862;2024-01-15T05:46:22;99353.19;;;0.33;86.92
84049;BME280;74136;51.684;7.862;2024-01-15T05:48:49;99340.44;;;0.27;86.80
84049;BME280;74136;51.684;7.862;2024-01-15T05:51:15;99341.09;;;0.29;86.81
84049;BME280;74136;51.684;7.862;2024-01-15T05:53:41;99346.72;;;0.34;86.94
84049;BME280;74136;51.684;7.862;2024-01-15T05:56:10;99338.00;;;0.32;87.19
84049;BME280;74136;51.684;7.862;2024-01-15T05:58:36;99340.28;;;0.35;86.33
84049;BME280;74136;51.684;7.862;2024-01-15T06:01:02;99340.91;;;0.30;86.96
84049;BME280;74136;51.684;7.862;2024-01-15T06:03:30;99334.03;;;0.34;86.89
84049;BME280;74136;51.684;7.862;2024-01-15T06:05:56;99348.44;;;0.42;86.77
84049;BME280;74136;51.684;7.862;2024-01-15T06:08:22;99348.84;;;0.39;87.10
84049;BME280;74136;51.684;7.862;2024-01-15T06:10:48;99338.66;;;0.41;87.06
84049;BME280;74136;51.684;7.862;2024-01-15T06:13:15;99344.91;;;0.41;86.68
84049;BME280;74136;51.684;7.862;2024-01-15T06:15:41;99350.50;;;0.40;86.58
84049;BME280;74136;51.684;7.862;2024-01-15T06:18:07;99336.78;;;0.41;86.43
84049;BME280;74136;51.684;7.862;2024-01-15T06:20:34;99337.44;;;0.50;86.31
84049;BME280;74136;51.684;7.862;2024-01-15T06:23:00;99330.75;;;0.46;86.24
84049;BME280;74136;51.684;7.862;2024-01-15T06:25:26;99336.59;;;0.49;85.83
84049;BME280;74136;51.684;7.862;2024-01-15T06:27:52;99343.03;;;0.48;86.24
84049;BME280;74136;51.684;7.862;2024-01-15T06:30:19;99341.38;;;0.47;86.02
84049;BME280;74136;51.684;7.862;2024-01-15T06:32:45;99328.25;;;0.44;86.42
84049;BME280;74136;51.684;7.862;2024-01-15T06:35:12;99321.38;;;0.42;86.23
84049;BME280;74136;51.684;7.862;2024-01-15T06:37:38;99337.63;;;0.48;86.34
84049;BME280;74136;51.684;7.862;2024-01-15T06:40:05;99332.22;;;0.48;86.40
84049;BME280;74136;51.684;7.862;2024-01-15T06:42:32;99332.41;;;0.47;86.55
84049;BME280;74136;51.684;7.862;2024-01-15T06:44:58;99330.97;;;0.44;86.49
84049;BME280;74136;51.684;7.862;2024-01-15T06:47:24;99334.28;;;0.46;86.84
84049;BME280;74136;51.684;7.862;2024-01-15T06:49:51;99330.13;;;0.44;86.73
84049;BME280;74136;51.684;7.862;2024-01-15T06:52:18;99335.13;;;0.47;86.92
84049;BME280;74136;51.684;7.862;2024-01-15T06:54:44;99334.72;;;0.50;86.54
84049;BME280;74136;51.684;7.862;2024-01-15T06:57:11;99344.50;;;0.51;86.79
84049;BME280;74136;51.684;7.862;2024-01-15T06:59:37;99338.66;;;0.47;86.65
84049;BME280;74136;51.684;7.862;2024-01-15T07:02:03;99343.47;;;0.52;86.95
84049;BME280;74136;51.684;7.862;2024-01-15T07:04:30;99336.41;;;0.51;86.73
84049;BME280;74136;51.684;7.862;2024-01-15T07:06:56;99347.66;;;0.54;86.40
84049;BME280;74136;51.684;7.862;2024-01-15T07:09:22;99334.97;;;0.55;86.33
84049;BME280;74136;51.684;7.862;2024-01-15T07:11:48;99348.91;;;0.58;85.85
84049;BME280;74136;51.684;7.862;2024-01-15T07:14:15;99347.03;;;0.52;86.37
84049;BME280;74136;51.684;7.862;2024-01-15T07:16:41;99353.66;;;0.43;86.75
84049;BME280;74136;51.684;7.862;2024-01-15T07:19:07;99358.59;;;0.33;87.51
84049;BME280;74136;51.684;7.862;2024-01-15T07:21:33;99357.72;;;0.26;87.95
84049;BME280;74136;51.684;7.862;2024-01-15T07:24:00;99363.88;;;0.13;88.33
84049;BME280;74136;51.684;7.862;2024-01-15T07:26:26;99350.72;;;0.04;89.01
84049;BME280;74136;51.684;7.862;2024-01-15T07:28:53;99347.56;;;-0.07;89.24
84049;BME280;74136;51.684;7.862;2024-01-15T07:31:20;99346.91;;;-0.09;89.99
84049;BME280;74136;51.684;7.862;2024-01-15T07:33:46;99345.25;;;-0.10;89.96
84049;BME280;74136;51.684;7.862;2024-01-15T07:36:12;99341.31;;;-0.07;90.52
84049;BME280;74136;51.684;7.862;2024-01-15T07:38:38;99337.75;;;-0.08;90.51
84049;BME280;74136;51.684;7.862;2024-01-15T07:41:06;99351.53;;;-0.03;90.20
84049;BME280;74136;51.684;7.862;2024-01-15T07:43:32;99345.72;;;0.00;90.25
84049;BME280;74136;51.684;7.862;2024-01-15T07:45:58;99351.13;;;0.00;90.48
84049;BME280;74136;51.684;7.862;2024-01-15T07:48:24;99352.78;;;0.02;89.92
84049;BME280;74136;51.684;7.862;2024-01-15T07:50:51;99361.94;;;0.00;90.01
84049;BME280;74136;51.684;7.862;2024-01-15T07:53:17;99358.56;;;-0.08;90.21
84049;BME280;74136;51.684;7.862;2024-01-15T07:55:43;99362.75;;;-0.06;89.94
84049;BME280;74136;51.684;7.862;2024-01-15T07:58:12;99348.34;;;-0.13;90.17
84049;BME280;74136;51.684;7.862;2024-01-15T08:00:38;99358.56;;;-0.08;90.95
84049;BME280;74136;51.684;7.862;2024-01-15T08:03:04;99352.97;;;-0.07;90.54
84049;BME280;74136;51.684;7.862;2024-01-15T08:05:31;99349.66;;;-0.02;90.83
84049;BME280;74136;51.684;7.862;2024-01-15T08:07:58;99346.53;;;0.01;90.78
84049;BME280;74136;51.684;7.862;2024-01-15T08:10:25;99354.06;;;0.06;89.92
84049;BME280;74136;51.684;7.862;2024-01-15T08:12:51;99343.72;;;0.09;90.23
84049;BME280;74136;51.684;7.862;2024-01-15T08:15:17;99345.38;;;0.10;90.16
84049;BME280;74136;51.684;7.862;2024-01-15T08:17:43;99351.13;;;0.00;89.92
84049;BME280;74136;51.684;7.862;2024-01-15T08:20:11;99336.72;;;-0.13;90.64
84049;BME280;74136;51.684;7.862;2024-01-15T08:22:38;99348.75;;;-0.16;90.83
84049;BME280;74136;51.684;7.862;2024-01-15T08:25:05;99334.13;;;-0.21;91.01
84049;BME280;74136;51.684;7.862;2024-01-15T08:27:31;99339.13;;;-0.25;91.42
84049;BME280;74136;51.684;7.862;2024-01-15T08:29:58;99339.31;;;-0.26;91.11
84049;BME280;74136;51.684;7.862;2024-01-15T08:32:24;99344.34;;;-0.23;91.61
84049;BME280;74136;51.684;7.862;2024-01-15T08:34:50;99343.50;;;-0.24;92.18
84049;BME280;74136;51.684;7.862;2024-01-15T08:37:19;99351.81;;;-0.25;92.39
84049;BME280;74136;51.684;7.862;2024-01-15T08:39:45;99346.13;;;-0.30;91.91
84049;BME280;74136;51.684;7.862;2024-01-15T08:42:13;99346.75;;;-0.35;91.95
84049;BME280;74136;51.684;7.862;2024-01-15T08:44:39;99336.50;;;-0.40;92.54
84049;BME280;74136;51.684;7.862;2024-01-15T08:47:07;99348.16;;;-0.39;92.20
84049;BME280;74136;51.684;7.862;2024-01-15T08:49:33;99349.00;;;-0.39;92.72
84049;BME280;74136;51.684;7.862;2024-01-15T08:52:00;99353.38;;;-0.38;92.97
84049;BME280;74136;51.684;7.862;2024-01-15T08:54:26;99355.88;;;-0.36;92.65
84049;BME280;74136;51.684;7.862;2024-01-15T08:56:52;99356.91;;;-0.37;92.96
84049;BME280;74136;51.684;7.862;2024-01-15T08:59:18;99348.63;;;-0.35;93.11
84049;BME280;74136;51.684;7.862;2024-01-15T09:01:50;99343.84;;;-0.33;93.15
84049;BME280;74136;51.684;7.862;2024-01-15T09:04:16;99335.75;;;-0.33;92.90
84049;BME280;74136;51.684;7.862;2024-01-15T09:06:45;99341.00;;;-0.25;93.07
84049;BME280;74136;51.684;7.862;2024-01-15T09:09:15;99333.28;;;-0.28;92.65
84049;BME280;74136;51.684;7.862;2024-01-15T09:11:41;99329.97;;;-0.24;92.67
84049;BME280;74136;51.684;7.862;2024-01-15T09:14:07;99340.00;;;-0.18;92.36
84049;BME280;74136;51.684;7.862;2024-01-15T09:16:35;99340.63;;;-0.16;92.92
84049;BME280;74136;51.684;7.862;2024-01-15T09:19:02;99345.25;;;-0.10;92.78
84049;BME280;74136;51.684;7.862;2024-01-15T09:21:30;99350.50;;;-0.02;92.39
84049;BME280;74136;51.684;7.862;2024-01-15T09:23:56;99350.09;;;0.02;91.87
84049;BME280;74136;51.684;7.862;2024-01-15T09:26:22;99353.69;;;0.09;91.94
84049;BME280;74136;51.684;7.862;2024-01-15T09:28:51;99334.47;;;-0.03;91.56
84049;BME280;74136;51.684;7.862;2024-01-15T09:31:18;99344.47;;;0.03;91.32
84049;BME280;74136;51.684;7.862;2024-01-15T09:33:45;99345.09;;;-0.02;91.98
84049;BME280;74136;51.684;7.862;2024-01-15T09:36:12;99354.06;;;0.06;91.93
84049;BME280;74136;51.684;7.862;2024-01-15T09:38:40;99341.75;;;-0.04;91.02
84049;BME280;74136;51.684;7.862;2024-01-15T09:41:06;99366.19;;;0.10;91.21
84049;BME280;74136;51.684;7.862;2024-01-15T09:43:33;99352.84;;;0.08;91.51
84049;BME280;74136;51.684;7.862;2024-01-15T09:46:00;99355.56;;;0.15;91.31
84049;BME280;74136;51.684;7.862;2024-01-15T09:48:27;99342.22;;;0.07;91.17
84049;BME280;74136;51.684;7.862;2024-01-15T09:50:54;99352.03;;;0.14;90.95
84049;BME280;74136;51.684;7.862;2024-01-15T09:53:21;99341.59;;;0.11;91.83
84049;BME280;74136;51.684;7.862;2024-01-15T09:55:49;99333.72;;;0.10;91.08
84049;BME280;74136;51.684;7.862;2024-01-15T09:58:16;99359.75;;;0.17;90.87
84049;BME280;74136;51.684;7.862;2024-01-15T10:00:42;99349.53;;;0.13;90.90
84049;BME280;74136;51.684;7.862;2024-01-15T10:03:10;99344.31;;;0.11;91.14
84049;BME280;74136;51.684;7.862;2024-01-15T10:05:38;99359.97;;;0.16;90.64
84049;BME280;74136;51.684;7.862;2024-01-15T10:08:04;99360.16;;;0.14;91.10
84049;BME280;74136;51.684;7.862;2024-01-15T10:10:30;99364.78;;;0.20;90.89
84049;BME280;74136;51.684;7.862;2024-01-15T10:12:58;99357.06;;;0.17;90.99
84049;BME280;74136;51.684;7.862;2024-01-15T10:15:25;99355.63;;;0.21;91.01
84049;BME280;74136;51.684;7.862;2024-01-15T10:17:52;99364.34;;;0.23;91.08
84049;BME280;74136;51.684;7.862;2024-01-15T10:20:18;99357.91;;;0.24;91.13
84049;BME280;74136;51.684;7.862;2024-01-15T10:22:50;99359.84;;;0.30;90.71
84049;BME280;74136;51.684;7.862;2024-01-15T10:25:16;99355.91;;;0.33;90.42
84049;BME280;74136;51.684;7.862;2024-01-15T10:27:43;99347.56;;;0.34;90.32
84049;BME280;74136;51.684;7.862;2024-01-15T10:30:10;99343.22;;;0.40;90.21
84049;BME280;74136;51.684;7.862;2024-01-15T10:32:36;99358.63;;;0.40;89.93
84049;BME280;74136;51.684;7.862;2024-01-15T10:35:03;99347.56;;;0.34;89.01
84049;BME280;74136;51.684;7.862;2024-01-15T10:37:33;99351.28;;;0.33;89.45
84049;BME280;74136;51.684;7.862;2024-01-15T10:40:02;99342.97;;;0.28;89.18
84049;BME280;74136;51.684;7.862;2024-01-15T10:42:31;99343.78;;;0.29;89.22
84049;BME280;74136;51.684;7.862;2024-01-15T10:44:57;99330.06;;;0.30;89.59
84049;BME280;74136;51.684;7.862;2024-01-15T10:47:23;99339.25;;;0.36;89.45
84049;BME280;74136;51.684;7.862;2024-01-15T10:49:50;99339.47;;;0.41;89.31
84049;BME280;74136;51.684;7.862;2024-01-15T10:52:18;99330.13;;;0.44;88.56
84049;BME280;74136;51.684;7.862;2024-01-15T10:54:45;99343.88;;;0.42;87.48
84049;BME280;74136;51.684;7.862;2024-01-15T10:57:11;99336.38;;;0.44;87.52
84049;BME280;74136;51.684;7.862;2024-01-15T10:59:39;99331.38;;;0.48;87.67
84049;BME280;74136;51.684;7.862;2024-01-15T11:02:05;99331.19;;;0.49;87.77
84049;BME280;74136;51.684;7.862;2024-01-15T11:04:32;99332.47;;;0.53;86.89
84049;BME280;74136;51.684;7.862;2024-01-15T11:06:59;99345.16;;;0.59;86.64
84049;BME280;74136;51.684;7.862;2024-01-15T11:09:25;99340.38;;;0.61;86.97
84049;BME280;74136;51.684;7.862;2024-01-15T11:12:12;99337.44;;;0.56;87.15
84049;BME280;74136;51.684;7.862;2024-01-15T11:14:45;99338.72;;;0.54;86.94
84049;BME280;74136;51.684;7.862;2024-01-15T11:17:12;99334.31;;;0.53;87.01
84049;BME280;74136;51.684;7.862;2024-01-15T11:19:47;99346.81;;;0.54;87.23
84049;BME280;74136;51.684;7.862;2024-01-15T11:25:12;99332.84;;;0.50;87.65
84049;BME280;74136;51.684;7.862;2024-01-15T11:27:41;99331.56;;;0.46;87.06
84049;BME280;74136;51.684;7.862;2024-01-15T11:30:14;99330.34;;;0.49;87.03
84049;BME280;74136;51.684;7.862;2024-01-15T11:32:41;99331.41;;;0.54;86.38
84049;BME280;74136;51.684;7.862;2024-01-15T11:35:07;99324.34;;;0.66;86.91
84049;BME280;74136;51.684;7.862;2024-01-15T11:40:37;99325.22;;;0.73;86.37
84049;BME280;74136;51.684;7.862;2024-01-15T11:43:05;99321.28;;;0.76;85.95
84049;BME280;74136;51.684;7.862;2024-01-15T11:45:32;99322.94;;;0.77;85.72
84049;BME280;74136;51.684;7.862;2024-01-15T11:48:10;99322.34;;;0.88;85.89
84049;BME280;74136;51.684;7.862;2024-01-15T11:50:41;99322.16;;;0.96;86.20
84049;BME280;74136;51.684;7.862;2024-01-15T11:53:32;99329.84;;;0.86;85.59
84049;BME280;74136;51.684;7.862;2024-01-15T11:56:14;99329.41;;;0.76;85.30
84049;BME280;74136;51.684;7.862;2024-01-15T11:58:41;99329.16;;;0.71;84.55
84049;BME280;74136;51.684;7.862;2024-01-15T12:01:07;99326.06;;;0.74;85.37
84049;BME280;74136;51.684;7.862;2024-01-15T12:03:34;99330.63;;;0.73;85.27
84049;BME280;74136;51.684;7.862;2024-01-15T12:06:00;99322.28;;;0.68;85.96
84049;BME280;74136;51.684;7.862;2024-01-15T12:08:27;99335.41;;;0.65;85.54
84049;BME280;74136;51.684;7.862;2024-01-15T12:10:53;99336.84;;;0.61;84.91
84049;BME280;74136;51.684;7.862;2024-01-15T12:13:20;99322.28;;;0.62;84.98
84049;BME280;74136;51.684;7.862;2024-01-15T12:15:47;99330.00;;;0.65;85.63
84049;BME280;74136;51.684;7.862;2024-01-15T12:18:15;99337.69;;;0.68;85.01
84049;BME280;74136;51.684;7.862;2024-01-15T12:20:43;99323.53;;;0.66;84.48
84049;BME280;74136;51.684;7.862;2024-01-15T12:23:09;99327.94;;;0.73;85.36
84049;BME280;74136;51.684;7.862;2024-01-15T12:25:36;99319.63;;;0.75;84.30
84049;BME280;74136;51.684;7.862;2024-01-15T12:28:04;99323.75;;;0.78;84.26
84049;BME280;74136;51.684;7.862;2024-01-15T12:30:30;99327.94;;;0.80;85.01
84049;BME280;74136;51.684;7.862;2024-01-15T12:33:03;99329.81;;;0.80;83.65
84049;BME280;74136;51.684;7.862;2024-01-15T12:35:32;99336.91;;;0.81;84.02
84049;BME280;74136;51.684;7.862;2024-01-15T12:38:00;99333.16;;;0.82;84.25
84049;BME280;74136;51.684;7.862;2024-01-15T12:40:31;99322.56;;;0.87;83.33
84049;BME280;74136;51.684;7.862;2024-01-15T12:42:58;99332.34;;;0.94;83.71
84049;BME280;74136;51.684;7.862;2024-01-15T12:45:24;99330.91;;;0.98;82.41
84049;BME280;74136;51.684;7.862;2024-01-15T12:47:51;99338.59;;;1.01;83.60
84049;BME280;74136;51.684;7.862;2024-01-15T12:50:17;99342.16;;;1.02;83.37
84049;BME280;74136;51.684;7.862;2024-01-15T12:52:43;99341.94;;;0.97;82.78
84049;BME280;74136;51.684;7.862;2024-01-15T12:55:10;99333.59;;;0.92;83.65
84049;BME280;74136;51.684;7.862;2024-01-15T12:57:37;99338.41;;;0.96;83.84
84049;BME280;74136;51.684;7.862;2024-01-15T13:00:04;99347.97;;;0.92;83.04
84049;BME280;74136;51.684;7.862;2024-01-15T13:02:39;99340.69;;;0.93;83.34
84049;BME280;74136;51.684;7.862;2024-01-15T13:05:08;99354.84;;;0.95;84.21
84049;BME280;74136;51.684;7.862;2024-01-15T13:07:35;99352.16;;;0.95;83.74
84049;BME280;74136;51.684;7.862;2024-01-15T13:10:01;99357.56;;;0.95;82.91
84049;BME280;74136;51.684;7.862;2024-01-15T13:12:28;99334.44;;;0.92;83.46